sensor_id;sensor_type;location;lat;lon;timestamp;pressure;altitude;pressure_sealevel;temperature;humidity
58092;BME280;43896;48.178;11.578;2023-04-19T00:01:56;96300.03;;;8.49;79.24
58092;BME280;43896;48.178;11.578;2023-04-19T00:04:21;96268.06;;;8.75;78.24
58092;BME280;43896;48.178;11.578;2023-04-19T00:06:47;96252.47;;;8.23;79.48
58092;BME280;43896;48.178;11.578;2023-04-19T00:09:12;96317.81;;;8.96;78.39
58092;BME280;43896;48.178;11.578;2023-04-19T00:11:38;96308.03;;;9.08;77.67
58092;BME280;43896;48.178;11.578;2023-04-19T00:14:03;96284.47;;;8.48;79.01
58092;BME280;43896;48.178;11.578;2023-04-19T00:16:28;96208.09;;;7.81;80.01
58092;BME280;43896;48.178;11.578;2023-04-19T00:18:54;96315.06;;;8.97;77.96
58092;BME280;43896;48.178;11.578;2023-04-19T00:21:19;96224.31;;;8.46;77.10
58092;BME280;43896;48.178;11.578;2023-04-19T00:23:45;96274.31;;;9.03;76.26
58092;BME280;43896;48.178;11.578;2023-04-19T00:26:10;96294.59;;;8.91;78.02
58092;BME280;43896;48.178;11.578;2023-04-19T00:28:36;96292.09;;;9.38;75.70
58092;BME280;43896;48.178;11.578;2023-04-19T00:31:02;96286.03;;;9.38;75.72
58092;BME280;43896;48.178;11.578;2023-04-19T00:33:27;96262.84;;;8.85;76.29
58092;BME280;43896;48.178;11.578;2023-04-19T00:35:52;96291.41;;;8.68;78.25
58092;BME280;43896;48.178;11.578;2023-04-19T00:38:18;96246.13;;;8.56;76.51
58092;BME280;43896;48.178;11.578;2023-04-19T00:40:43;96244.25;;;8.37;78.40
58092;BME280;43896;48.178;11.578;2023-04-19T00:43:08;96294.44;;;8.83;78.40
58092;BME280;43896;48.178;11.578;2023-04-19T00:45:34;96236.56;;;8.05;79.71
58092;BME280;43896;48.178;11.578;2023-04-19T00:48:00;96284.50;;;8.87;77.18
58092;BME280;43896;48.178;11.578;2023-04-19T00:50:26;96250.50;;;8.46;78.51
58092;BME280;43896;48.178;11.578;2023-04-19T00:52:53;96284.50;;;8.67;79.35
58092;BME280;43896;48.178;11.578;2023-04-19T00:55:19;96198.94;;;8.16;78.49
58092;BME280;43896;48.178;11.578;2023-04-19T00:57:45;96255.63;;;8.57;78.49
58092;BME280;43896;48.178;11.578;2023-04-19T01:00:11;96210.53;;;8.93;76.31
58092;BME280;43896;48.178;11.578;2023-04-19T01:02:36;96251.41;;;8.86;76.78
58092;BME280;43896;48.178;11.578;2023-04-19T01:05:02;96208.19;;;8.90;76.63
58092;BME280;43896;48.178;11.578;2023-04-19T01:07:27;96254.44;;;9.20;76.37
58092;BME280;43896;48.178;11.578;2023-04-19T01:09:53;96221.84;;;9.13;76.09
58092;BME280;43896;48.178;11.578;2023-04-19T01:12:18;96197.94;;;8.87;75.58
58092;BME280;43896;48.178;11.578;2023-04-19T01:14:44;96272.50;;;8.84;78.35
58092;BME280;43896;48.178;11.578;2023-04-19T01:17:10;96257.31;;;8.68;78.33
58092;BME280;43896;48.178;11.578;2023-04-19T01:19:37;96255.09;;;8.63;79.08
58092;BME280;43896;48.178;11.578;2023-04-19T01:22:03;96198.31;;;7.83;80.23
58092;BME280;43896;48.178;11.578;2023-04-19T01:24:29;96214.78;;;8.64;78.06
58092;BME280;43896;48.178;11.578;2023-04-19T01:26:54;96254.78;;;8.47;79.25
58092;BME280;43896;48.178;11.578;2023-04-19T01:29:20;96269.69;;;8.47;79.45
58092;BME280;43896;48.178;11.578;2023-04-19T01:31:47;96248.97;;;8.43;79.81
58092;BME280;43896;48.178;11.578;2023-04-19T01:34:15;96260.63;;;8.80;78.18
58092;BME280;43896;48.178;11.578;2023-04-19T01:36:41;96254.44;;;8.40;80.48
58092;BME280;43896;48.178;11.578;2023-04-19T01:39:06;96213.78;;;7.96;81.67
58092;BME280;43896;48.178;11.578;2023-04-19T01:41:31;96186.47;;;7.88;80.29
58092;BME280;43896;48.178;11.578;2023-04-19T01:43:56;96207.66;;;7.85;82.03
58092;BME280;43896;48.178;11.578;2023-04-19T01:46:22;96209.78;;;7.92;81.82
58092;BME280;43896;48.178;11.578;2023-04-19T01:48:47;96242.72;;;8.35;81.74
58092;BME280;43896;48.178;11.578;2023-04-19T01:51:12;96245.69;;;8.11;81.39
58092;BME280;43896;48.178;11.578;2023-04-19T01:53:38;96233.28;;;8.13;81.11
58092;BME280;43896;48.178;11.578;2023-04-19T01:56:03;96238.22;;;8.06;82.80
58092;BME280;43896;48.178;11.578;2023-04-19T01:58:29;96236.00;;;8.01;82.05
58092;BME280;43896;48.178;11.578;2023-04-19T02:00:54;96157.47;;;7.40;82.96
58092;BME280;43896;48.178;11.578;2023-04-19T02:03:19;96230.03;;;7.89;82.86
58092;BME280;43896;48.178;11.578;2023-04-19T02:05:44;96210.16;;;7.87;82.92
58092;BME280;43896;48.178;11.578;2023-04-19T02:08:10;96148.97;;;7.47;82.27
58092;BME280;43896;48.178;11.578;2023-04-19T02:10:35;96150.00;;;7.35;83.15
58092;BME280;43896;48.178;11.578;2023-04-19T02:13:01;96214.31;;;7.89;83.95
58092;BME280;43896;48.178;11.578;2023-04-19T02:15:26;96232.75;;;8.79;80.62
58092;BME280;43896;48.178;11.578;2023-04-19T02:17:51;96205.13;;;8.15;82.97
58092;BME280;43896;48.178;11.578;2023-04-19T02:20:17;96191.03;;;8.47;81.47
58092;BME280;43896;48.178;11.578;2023-04-19T02:22:42;96124.22;;;8.21;80.40
58092;BME280;43896;48.178;11.578;2023-04-19T02:25:08;96217.84;;;8.19;83.54
58092;BME280;43896;48.178;11.578;2023-04-19T02:27:33;96220.47;;;8.19;84.67
58092;BME280;43896;48.178;11.578;2023-04-19T02:29:58;96164.53;;;8.40;83.59
58092;BME280;43896;48.178;11.578;2023-04-19T02:32:24;96203.75;;;8.51;82.43
58092;BME280;43896;48.178;11.578;2023-04-19T02:34:49;96210.63;;;8.02;85.22
58092;BME280;43896;48.178;11.578;2023-04-19T02:37:15;96217.38;;;8.45;84.37
58092;BME280;43896;48.178;11.578;2023-04-19T02:39:41;96177.34;;;7.83;85.87
58092;BME280;43896;48.178;11.578;2023-04-19T02:42:06;96159.63;;;7.56;86.99
58092;BME280;43896;48.178;11.578;2023-04-19T02:44:32;96188.69;;;7.93;87.08
58092;BME280;43896;48.178;11.578;2023-04-19T02:46:57;96185.94;;;8.45;84.07
58092;BME280;43896;48.178;11.578;2023-04-19T02:49:22;96185.13;;;8.93;81.84
58092;BME280;43896;48.178;11.578;2023-04-19T02:51:49;96197.41;;;8.83;81.12
58092;BME280;43896;48.178;11.578;2023-04-19T02:54:15;96153.66;;;7.94;84.61
58092;BME280;43896;48.178;11.578;2023-04-19T02:56:40;96189.63;;;7.92;86.42
58092;BME280;43896;48.178;11.578;2023-04-19T02:59:05;96199.22;;;8.13;87.86
58092;BME280;43896;48.178;11.578;2023-04-19T03:01:31;96185.00;;;8.66;84.01
58092;BME280;43896;48.178;11.578;2023-04-19T03:03:56;96173.44;;;8.08;85.52
58092;BME280;43896;48.178;11.578;2023-04-19T03:06:22;96160.53;;;8.36;84.73
58092;BME280;43896;48.178;11.578;2023-04-19T03:08:47;96184.94;;;8.36;84.88
58092;BME280;43896;48.178;11.578;2023-04-19T03:11:14;96173.06;;;8.32;84.68
58092;BME280;43896;48.178;11.578;2023-04-19T03:13:40;96153.09;;;8.41;85.12
58092;BME280;43896;48.178;11.578;2023-04-19T03:16:06;96185.75;;;8.27;85.54
58092;BME280;43896;48.178;11.578;2023-04-19T03:18:32;96174.59;;;7.84;87.44
58092;BME280;43896;48.178;11.578;2023-04-19T03:20:57;96116.31;;;7.82;86.74
58092;BME280;43896;48.178;11.578;2023-04-19T03:23:23;96185.94;;;8.04;86.99
58092;BME280;43896;48.178;11.578;2023-04-19T03:25:48;96180.22;;;7.80;87.35
58092;BME280;43896;48.178;11.578;2023-04-19T03:28:14;96177.66;;;7.89;87.18
58092;BME280;43896;48.178;11.578;2023-04-19T03:30:39;96172.69;;;7.86;87.32
58092;BME280;43896;48.178;11.578;2023-04-19T03:33:05;96158.16;;;8.23;85.87
58092;BME280;43896;48.178;11.578;2023-04-19T03:35:30;96102.97;;;8.15;84.04
58092;BME280;43896;48.178;11.578;2023-04-19T03:37:56;96140.28;;;8.57;82.79
58092;BME280;43896;48.178;11.578;2023-04-19T03:40:21;96141.06;;;9.07;80.48
58092;BME280;43896;48.178;11.578;2023-04-19T03:42:47;96129.78;;;8.77;81.27
58092;BME280;43896;48.178;11.578;2023-04-19T03:45:12;96155.16;;;8.76;82.52
58092;BME280;43896;48.178;11.578;2023-04-19T03:47:37;96126.06;;;8.79;82.20
58092;BME280;43896;48.178;11.578;2023-04-19T03:50:03;96120.16;;;8.48;82.83
58092;BME280;43896;48.178;11.578;2023-04-19T03:52:28;96151.88;;;8.55;83.03
58092;BME280;43896;48.178;11.578;2023-04-19T03:54:54;96085.75;;;8.12;83.56
58092;BME280;43896;48.178;11.578;2023-04-19T03:57:19;96092.78;;;8.12;83.60
58092;BME280;43896;48.178;11.578;2023-04-19T03:59:45;96123.81;;;8.06;84.07
58092;BME280;43896;48.178;11.578;2023-04-19T04:02:10;96163.72;;;8.49;84.42
58092;BME280;43896;48.178;11.578;2023-04-19T04:04:35;96147.28;;;8.27;84.87
58092;BME280;43896;48.178;11.578;2023-04-19T04:07:01;96143.81;;;8.95;81.33
58092;BME280;43896;48.178;11.578;2023-04-19T04:09:26;96121.50;;;8.52;83.13
58092;BME280;43896;48.178;11.578;2023-04-19T04:11:51;96084.78;;;8.23;82.70
58092;BME280;43896;48.178;11.578;2023-04-19T04:14:17;96166.16;;;8.31;84.46
58092;BME280;43896;48.178;11.578;2023-04-19T04:16:42;96155.03;;;8.88;82.35
58092;BME280;43896;48.178;11.578;2023-04-19T04:19:07;96121.50;;;8.81;81.22
58092;BME280;43896;48.178;11.578;2023-04-19T04:21:33;96166.50;;;8.77;81.79
58092;BME280;43896;48.178;11.578;2023-04-19T04:23:58;96096.63;;;8.07;82.82
58092;BME280;43896;48.178;11.578;2023-04-19T04:26:26;96134.88;;;8.49;82.23
58092;BME280;43896;48.178;11.578;2023-04-19T04:28:55;96137.25;;;8.52;82.19
58092;BME280;43896;48.178;11.578;2023-04-19T04:31:21;96165.81;;;8.85;82.78
58092;BME280;43896;48.178;11.578;2023-04-19T04:33:46;96163.72;;;8.78;81.87
58092;BME280;43896;48.178;11.578;2023-04-19T04:36:11;96165.03;;;8.14;83.77
58092;BME280;43896;48.178;11.578;2023-04-19T04:38:37;96168.84;;;8.70;83.09
58092;BME280;43896;48.178;11.578;2023-04-19T04:41:03;96163.53;;;8.21;83.89
58092;BME280;43896;48.178;11.578;2023-04-19T04:43:28;96129.75;;;7.68;85.25
58092;BME280;43896;48.178;11.578;2023-04-19T04:45:54;96168.44;;;8.55;83.51
58092;BME280;43896;48.178;11.578;2023-04-19T04:48:22;96170.34;;;8.53;83.25
58092;BME280;43896;48.178;11.578;2023-04-19T04:50:47;96111.41;;;8.18;83.06
58092;BME280;43896;48.178;11.578;2023-04-19T04:53:12;96171.34;;;8.02;84.58
58092;BME280;43896;48.178;11.578;2023-04-19T04:55:38;96169.31;;;8.15;84.23
58092;BME280;43896;48.178;11.578;2023-04-19T04:58:03;96158.69;;;8.26;83.94
58092;BME280;43896;48.178;11.578;2023-04-19T05:00:31;96140.38;;;8.85;80.91
58092;BME280;43896;48.178;11.578;2023-04-19T05:02:58;96126.34;;;8.67;81.46
58092;BME280;43896;48.178;11.578;2023-04-19T05:05:23;96106.06;;;8.59;79.72
58092;BME280;43896;48.178;11.578;2023-04-19T05:07:48;96079.00;;;8.39;79.91
58092;BME280;43896;48.178;11.578;2023-04-19T05:10:14;96153.50;;;8.95;79.65
58092;BME280;43896;48.178;11.578;2023-04-19T05:12:40;96122.47;;;8.71;79.28
58092;BME280;43896;48.178;11.578;2023-04-19T05:15:06;96159.75;;;8.55;81.06
58092;BME280;43896;48.178;11.578;2023-04-19T05:17:31;96159.41;;;8.29;83.25
58092;BME280;43896;48.178;11.578;2023-04-19T05:19:57;96158.53;;;8.08;84.21
58092;BME280;43896;48.178;11.578;2023-04-19T05:22:22;96136.44;;;7.92;84.05
58092;BME280;43896;48.178;11.578;2023-04-19T05:24:47;96137.22;;;8.33;83.27
58092;BME280;43896;48.178;11.578;2023-04-19T05:27:14;96142.19;;;8.36;81.88
58092;BME280;43896;48.178;11.578;2023-04-19T05:29:39;96133.00;;;8.01;83.59
58092;BME280;43896;48.178;11.578;2023-04-19T05:32:05;96115.91;;;7.97;85.14
58092;BME280;43896;48.178;11.578;2023-04-19T05:34:32;96160.38;;;8.27;82.90
58092;BME280;43896;48.178;11.578;2023-04-19T05:36:58;96145.19;;;8.21;82.99
58092;BME280;43896;48.178;11.578;2023-04-19T05:39:23;96158.78;;;8.66;81.21
58092;BME280;43896;48.178;11.578;2023-04-19T05:41:48;96159.25;;;8.30;82.77
58092;BME280;43896;48.178;11.578;2023-04-19T05:44:14;96152.69;;;8.45;82.36
58092;BME280;43896;48.178;11.578;2023-04-19T05:46:39;96158.63;;;8.48;82.48
58092;BME280;43896;48.178;11.578;2023-04-19T05:49:04;96139.41;;;8.27;81.83
58092;BME280;43896;48.178;11.578;2023-04-19T05:51:30;96142.59;;;8.80;79.59
58092;BME280;43896;48.178;11.578;2023-04-19T05:53:56;96111.69;;;8.15;81.83
58092;BME280;43896;48.178;11.578;2023-04-19T05:56:21;96123.97;;;8.93;79.27
58092;BME280;43896;48.178;11.578;2023-04-19T05:58:50;96148.25;;;8.95;79.54
58092;BME280;43896;48.178;11.578;2023-04-19T06:01:16;96120.41;;;8.64;80.16
58092;BME280;43896;48.178;11.578;2023-04-19T06:03:41;96148.00;;;8.59;79.99
58092;BME280;43896;48.178;11.578;2023-04-19T06:06:07;96136.91;;;8.26;81.58
58092;BME280;43896;48.178;11.578;2023-04-19T06:08:32;96144.38;;;8.31;81.92
58092;BME280;43896;48.178;11.578;2023-04-19T06:10:58;96127.88;;;8.50;80.83
58092;BME280;43896;48.178;11.578;2023-04-19T06:13:23;96150.28;;;8.23;81.34
58092;BME280;43896;48.178;11.578;2023-04-19T06:15:49;96147.69;;;8.33;81.40
58092;BME280;43896;48.178;11.578;2023-04-19T06:18:14;96140.56;;;7.84;82.88
58092;BME280;43896;48.178;11.578;2023-04-19T06:20:39;96131.66;;;8.16;81.08
58092;BME280;43896;48.178;11.578;2023-04-19T06:23:06;96124.34;;;8.00;81.27
58092;BME280;43896;48.178;11.578;2023-04-19T06:25:31;96138.53;;;7.98;81.62
58092;BME280;43896;48.178;11.578;2023-04-19T06:27:57;96142.41;;;8.03;82.26
58092;BME280;43896;48.178;11.578;2023-04-19T06:30:22;96133.50;;;7.75;81.73
58092;BME280;43896;48.178;11.578;2023-04-19T06:32:48;96133.59;;;8.14;81.13
58092;BME280;43896;48.178;11.578;2023-04-19T06:35:14;96132.78;;;8.33;80.61
58092;BME280;43896;48.178;11.578;2023-04-19T06:37:39;96123.66;;;8.18;80.77
58092;BME280;43896;48.178;11.578;2023-04-19T06:40:05;96152.53;;;8.37;80.26
58092;BME280;43896;48.178;11.578;2023-04-19T06:42:32;96122.16;;;8.83;77.51
58092;BME280;43896;48.178;11.578;2023-04-19T06:44:58;96142.47;;;9.01;77.98
58092;BME280;43896;48.178;11.578;2023-04-19T06:47:23;96131.44;;;8.97;76.86
58092;BME280;43896;48.178;11.578;2023-04-19T06:49:48;96120.16;;;8.48;77.82
58092;BME280;43896;48.178;11.578;2023-04-19T06:52:13;96138.34;;;8.50;79.45
58092;BME280;43896;48.178;11.578;2023-04-19T06:54:39;96119.22;;;7.99;80.89
58092;BME280;43896;48.178;11.578;2023-04-19T06:57:04;96122.44;;;8.90;78.40
58092;BME280;43896;48.178;11.578;2023-04-19T06:59:30;96124.97;;;8.53;78.36
58092;BME280;43896;48.178;11.578;2023-04-19T07:01:56;96139.19;;;8.50;79.39
58092;BME280;43896;48.178;11.578;2023-04-19T07:04:24;96138.31;;;8.98;78.08
58092;BME280;43896;48.178;11.578;2023-04-19T07:06:49;96119.84;;;8.80;77.63
58092;BME280;43896;48.178;11.578;2023-04-19T07:09:15;96129.50;;;8.80;78.73
58092;BME280;43896;48.178;11.578;2023-04-19T07:11:40;96134.22;;;8.57;78.92
58092;BME280;43896;48.178;11.578;2023-04-19T07:14:05;96098.84;;;8.32;79.25
58092;BME280;43896;48.178;11.578;2023-04-19T07:16:31;96124.28;;;8.70;78.85
58092;BME280;43896;48.178;11.578;2023-04-19T07:18:57;96110.34;;;8.60;77.84
58092;BME280;43896;48.178;11.578;2023-04-19T07:21:22;96112.75;;;9.48;75.28
58092;BME280;43896;48.178;11.578;2023-04-19T07:23:50;96127.75;;;9.65;75.13
58092;BME280;43896;48.178;11.578;2023-04-19T07:26:16;96093.44;;;9.76;74.92
58092;BME280;43896;48.178;11.578;2023-04-19T07:28:41;96115.19;;;10.14;73.58
58092;BME280;43896;48.178;11.578;2023-04-19T07:31:06;96113.78;;;10.38;70.52
58092;BME280;43896;48.178;11.578;2023-04-19T07:33:32;96072.97;;;9.98;71.60
58092;BME280;43896;48.178;11.578;2023-04-19T07:35:58;96105.59;;;10.41;71.33
58092;BME280;43896;48.178;11.578;2023-04-19T07:38:23;96107.19;;;10.52;69.86
58092;BME280;43896;48.178;11.578;2023-04-19T07:40:49;96102.19;;;10.13;71.69
58092;BME280;43896;48.178;11.578;2023-04-19T07:43:14;96105.47;;;9.69;73.70
58092;BME280;43896;48.178;11.578;2023-04-19T07:45:40;96106.84;;;9.46;74.63
58092;BME280;43896;48.178;11.578;2023-04-19T07:48:06;96079.41;;;10.04;72.65
58092;BME280;43896;48.178;11.578;2023-04-19T07:50:31;96100.00;;;10.08;72.21
58092;BME280;43896;48.178;11.578;2023-04-19T07:52:56;96088.84;;;10.42;71.83
58092;BME280;43896;48.178;11.578;2023-04-19T07:55:22;96104.09;;;9.93;72.82
58092;BME280;43896;48.178;11.578;2023-04-19T07:57:48;96087.00;;;9.89;72.86
58092;BME280;43896;48.178;11.578;2023-04-19T08:00:14;96102.88;;;10.33;70.97
58092;BME280;43896;48.178;11.578;2023-04-19T08:02:46;96097.41;;;10.26;71.70
58092;BME280;43896;48.178;11.578;2023-04-19T08:05:13;96098.75;;;10.66;70.19
58092;BME280;43896;48.178;11.578;2023-04-19T08:07:40;96086.28;;;10.14;71.44
58092;BME280;43896;48.178;11.578;2023-04-19T08:10:06;96087.91;;;9.98;73.04
58092;BME280;43896;48.178;11.578;2023-04-19T08:12:32;96070.06;;;9.73;72.96
58092;BME280;43896;48.178;11.578;2023-04-19T08:14:57;96092.75;;;10.56;71.02
58092;BME280;43896;48.178;11.578;2023-04-19T08:17:22;96057.63;;;10.83;69.29
58092;BME280;43896;48.178;11.578;2023-04-19T08:19:49;96074.94;;;11.20;68.38
58092;BME280;43896;48.178;11.578;2023-04-19T08:22:15;96096.66;;;11.49;66.99
58092;BME280;43896;48.178;11.578;2023-04-19T08:24:41;96089.13;;;11.54;66.29
58092;BME280;43896;48.178;11.578;2023-04-19T08:27:08;96084.84;;;11.61;65.42
58092;BME280;43896;48.178;11.578;2023-04-19T08:29:33;96083.28;;;11.42;66.51
58092;BME280;43896;48.178;11.578;2023-04-19T08:31:58;96084.84;;;11.26;68.62
58092;BME280;43896;48.178;11.578;2023-04-19T08:34:24;96076.75;;;11.54;66.58
58092;BME280;43896;48.178;11.578;2023-04-19T08:36:49;96078.25;;;10.96;69.08
58092;BME280;43896;48.178;11.578;2023-04-19T08:39:15;96075.81;;;10.77;68.88
58092;BME280;43896;48.178;11.578;2023-04-19T08:41:40;96074.72;;;11.14;66.82
58092;BME280;43896;48.178;11.578;2023-04-19T08:44:05;96076.16;;;11.34;67.54
58092;BME280;43896;48.178;11.578;2023-04-19T08:46:31;96069.81;;;11.53;65.71
58092;BME280;43896;48.178;11.578;2023-04-19T08:48:58;96054.94;;;11.01;67.79
58092;BME280;43896;48.178;11.578;2023-04-19T08:51:24;96083.69;;;10.50;70.43
58092;BME280;43896;48.178;11.578;2023-04-19T08:53:51;96065.06;;;11.14;67.30
58092;BME280;43896;48.178;11.578;2023-04-19T08:56:16;96063.16;;;11.33;66.15
58092;BME280;43896;48.178;11.578;2023-04-19T08:58:42;96065.53;;;11.44;66.47
58092;BME280;43896;48.178;11.578;2023-04-19T09:01:07;96065.56;;;11.52;66.28
58092;BME280;43896;48.178;11.578;2023-04-19T09:03:33;96061.81;;;11.29;66.47
58092;BME280;43896;48.178;11.578;2023-04-19T09:06:00;96066.53;;;11.51;66.32
58092;BME280;43896;48.178;11.578;2023-04-19T09:08:27;96049.16;;;11.67;66.08
58092;BME280;43896;48.178;11.578;2023-04-19T09:10:55;96048.13;;;10.91;68.63
58092;BME280;43896;48.178;11.578;2023-04-19T09:13:21;96056.66;;;11.45;66.65
58092;BME280;43896;48.178;11.578;2023-04-19T09:15:47;96059.03;;;11.64;64.72
58092;BME280;43896;48.178;11.578;2023-04-19T09:18:12;96024.75;;;11.56;64.68
58092;BME280;43896;48.178;11.578;2023-04-19T09:20:42;96045.91;;;11.89;65.28
58092;BME280;43896;48.178;11.578;2023-04-19T09:23:08;96048.84;;;11.86;64.91
58092;BME280;43896;48.178;11.578;2023-04-19T09:25:36;96039.38;;;12.01;64.02
58092;BME280;43896;48.178;11.578;2023-04-19T09:28:09;96014.28;;;11.89;62.71
58092;BME280;43896;48.178;11.578;2023-04-19T09:30:36;96039.56;;;12.16;62.81
58092;BME280;43896;48.178;11.578;2023-04-19T09:33:01;96024.06;;;12.13;62.23
58092;BME280;43896;48.178;11.578;2023-04-19T09:35:43;96009.28;;;12.21;61.92
58092;BME280;43896;48.178;11.578;2023-04-19T09:38:10;96030.03;;;12.40;61.96
58092;BME280;43896;48.178;11.578;2023-04-19T09:40:37;96008.09;;;11.98;61.68
58092;BME280;43896;48.178;11.578;2023-04-19T09:43:02;96022.69;;;11.85;64.63
58092;BME280;43896;48.178;11.578;2023-04-19T09:45:42;96020.06;;;11.34;66.02
58092;BME280;43896;48.178;11.578;2023-04-19T09:48:08;96004.81;;;11.62;65.24
58092;BME280;43896;48.178;11.578;2023-04-19T09:50:35;96009.28;;;12.21;62.52
58092;BME280;43896;48.178;11.578;2023-04-19T09:53:02;96009.75;;;12.32;61.92
58092;BME280;43896;48.178;11.578;2023-04-19T09:55:27;95954.47;;;11.65;61.88
58092;BME280;43896;48.178;11.578;2023-04-19T09:57:53;96006.63;;;11.53;63.17
58092;BME280;43896;48.178;11.578;2023-04-19T10:00:19;95992.09;;;11.41;64.79
58092;BME280;43896;48.178;11.578;2023-04-19T10:02:46;96002.38;;;11.18;66.67
58092;BME280;43896;48.178;11.578;2023-04-19T10:05:19;95995.84;;;10.43;69.94
58092;BME280;43896;48.178;11.578;2023-04-19T10:07:45;95998.31;;;10.45;70.57
58092;BME280;43896;48.178;11.578;2023-04-19T10:10:14;95983.44;;;10.54;70.59
58092;BME280;43896;48.178;11.578;2023-04-19T10:12:43;95991.28;;;10.72;69.62
58092;BME280;43896;48.178;11.578;2023-04-19T10:15:12;95997.47;;;10.88;69.84
58092;BME280;43896;48.178;11.578;2023-04-19T10:17:38;95965.13;;;10.26;68.97
58092;BME280;43896;48.178;11.578;2023-04-19T10:20:07;95964.13;;;10.45;69.38
58092;BME280;43896;48.178;11.578;2023-04-19T10:22:35;95974.25;;;10.84;68.46
58092;BME280;43896;48.178;11.578;2023-04-19T10:25:15;95956.63;;;11.11;67.46
58092;BME280;43896;48.178;11.578;2023-04-19T10:27:41;95982.59;;;11.05;68.37
58092;BME280;43896;48.178;11.578;2023-04-19T10:30:23;95978.63;;;11.44;67.34
58092;BME280;43896;48.178;11.578;2023-04-19T10:32:58;95975.41;;;11.16;68.08
58092;BME280;43896;48.178;11.578;2023-04-19T10:35:26;95958.53;;;11.35;67.09
58092;BME280;43896;48.178;11.578;2023-04-19T10:38:07;95971.47;;;11.20;68.23
58092;BME280;43896;48.178;11.578;2023-04-19T10:43:32;95970.16;;;11.83;66.05
58092;BME280;43896;48.178;11.578;2023-04-19T10:46:13;95942.38;;;11.38;65.66
58092;BME280;43896;48.178;11.578;2023-04-19T10:48:59;95968.94;;;10.76;68.15
58092;BME280;43896;48.178;11.578;2023-04-19T10:51:31;95955.84;;;10.84;67.60
58092;BME280;43896;48.178;11.578;2023-04-19T10:54:01;95939.41;;;10.56;68.07
58092;BME280;43896;48.178;11.578;2023-04-19T11:01:42;95927.69;;;10.50;66.54
58092;BME280;43896;48.178;11.578;2023-04-19T11:04:09;95925.41;;;10.47;67.24
58092;BME280;43896;48.178;11.578;2023-04-19T11:06:36;95944.47;;;10.49;67.63
58092;BME280;43896;48.178;11.578;2023-04-19T11:09:02;95925.06;;;10.50;66.98
58092;BME280;43896;48.178;11.578;2023-04-19T11:11:36;95914.97;;;10.37;66.98
58092;BME280;43896;48.178;11.578;2023-04-19T11:14:02;95926.38;;;10.28;67.23
58092;BME280;43896;48.178;11.578;2023-04-19T11:16:29;95934.03;;;10.39;68.48
58092;BME280;43896;48.178;11.578;2023-04-19T11:18:54;95920.28;;;10.27;67.96
58092;BME280;43896;48.178;11.578;2023-04-19T11:21:20;95897.50;;;10.10;68.90
58092;BME280;43896;48.178;11.578;2023-04-19T11:23:46;95908.16;;;10.87;67.74
58092;BME280;43896;48.178;11.578;2023-04-19T11:26:16;95908.16;;;10.53;67.34
58092;BME280;43896;48.178;11.578;2023-04-19T11:28:43;95925.25;;;10.57;68.78
58092;BME280;43896;48.178;11.578;2023-04-19T11:31:08;95919.28;;;10.46;70.13
58092;BME280;43896;48.178;11.578;2023-04-19T11:33:35;95928.28;;;10.36;72.69
58092;BME280;43896;48.178;11.578;2023-04-19T11:36:01;95920.94;;;10.47;72.41
58092;BME280;43896;48.178;11.578;2023-04-19T11:38:28;95925.81;;;9.98;75.41
58092;BME280;43896;48.178;11.578;2023-04-19T11:41:00;95906.72;;;9.52;78.22
58092;BME280;43896;48.178;11.578;2023-04-19T11:43:33;95914.75;;;9.68;78.28
58092;BME280;43896;48.178;11.578;2023-04-19T11:46:05;95931.72;;;9.92;78.37
58092;BME280;43896;48.178;11.578;2023-04-19T11:48:31;95918.78;;;9.45;80.69
58092;BME280;43896;48.178;11.578;2023-04-19T11:50:58;95862.53;;;9.29;80.09
58092;BME280;43896;48.178;11.578;2023-04-19T11:53:25;95924.56;;;9.48;81.49
58092;BME280;43896;48.178;11.578;2023-04-19T11:55:52;95920.75;;;9.43;83.75
58092;BME280;43896;48.178;11.578;2023-04-19T11:58:31;95906.63;;;9.08;83.34
58092;BME280;43896;48.178;11.578;2023-04-19T12:03:31;95905.63;;;9.09;84.79
58092;BME280;43896;48.178;11.578;2023-04-19T12:05:58;95926.06;;;9.33;84.98
58092;BME280;43896;48.178;11.578;2023-04-19T12:08:38;95917.34;;;9.32;85.15
58092;BME280;43896;48.178;11.578;2023-04-19T12:11:04;95884.34;;;9.84;81.35
58092;BME280;43896;48.178;11.578;2023-04-19T12:13:31;95913.53;;;9.81;83.14
58092;BME280;43896;48.178;11.578;2023-04-19T12:15:57;95870.94;;;9.69;82.11
58092;BME280;43896;48.178;11.578;2023-04-19T12:18:22;95910.72;;;10.18;82.10
58092;BME280;43896;48.178;11.578;2023-04-19T12:20:51;95848.44;;;9.66;80.98
58092;BME280;43896;48.178;11.578;2023-04-19T12:23:17;95901.00;;;10.19;81.16
58092;BME280;43896;48.178;11.578;2023-04-19T12:25:45;95907.22;;;10.09;81.99
58092;BME280;43896;48.178;11.578;2023-04-19T12:28:10;95907.81;;;10.03;80.10
58092;BME280;43896;48.178;11.578;2023-04-19T12:30:37;95901.41;;;9.62;80.43
58092;BME280;43896;48.178;11.578;2023-04-19T12:33:03;95906.91;;;9.23;82.36
58092;BME280;43896;48.178;11.578;2023-04-19T12:35:28;95911.13;;;8.88;84.07
58092;BME280;43896;48.178;11.578;2023-04-19T12:37:55;95896.59;;;8.93;85.14
58092;BME280;43896;48.178;11.578;2023-04-19T12:40:22;95907.97;;;8.84;85.45
58092;BME280;43896;48.178;11.578;2023-04-19T12:42:47;95889.47;;;8.58;85.07
58092;BME280;43896;48.178;11.578;2023-04-19T12:45:13;95881.34;;;9.25;82.47
58092;BME280;43896;48.178;11.578;2023-04-19T12:47:40;95904.19;;;9.14;83.73
58092;BME280;43896;48.178;11.578;2023-04-19T12:50:06;95881.13;;;8.90;84.21
58092;BME280;43896;48.178;11.578;2023-04-19T12:52:31;95870.72;;;8.80;84.66
58092;BME280;43896;48.178;11.578;2023-04-19T12:54:57;95883.22;;;8.87;84.10
58092;BME280;43896;48.178;11.578;2023-04-19T12:57:22;95884.97;;;9.60;81.74
58092;BME280;43896;48.178;11.578;2023-04-19T12:59:47;95889.81;;;9.72;80.82
58092;BME280;43896;48.178;11.578;2023-04-19T13:02:13;95879.78;;;9.50;79.40
58092;BME280;43896;48.178;11.578;2023-04-19T13:04:38;95889.81;;;9.36;80.45